createdAt,value
2018-11-26T00:00:43.586Z,3.30
2018-11-26T00:05:39.823Z,3.40
2018-11-26T00:10:51.258Z,3.30
2018-11-26T00:15:45.883Z,3.30
2018-11-26T00:20:40.586Z,3.20
2018-11-26T00:25:35.211Z,3.30
2018-11-26T00:30:29.946Z,3.20
2018-11-26T00:35:24.571Z,3.20
2018-11-26T00:40:19.266Z,3.10
2018-11-26T00:45:20.565Z,3.10
2018-11-26T00:50:15.221Z,3.10
2018-11-26T00:55:11.467Z,3.20
2018-11-26T01:00:13.614Z,3.20
2018-11-26T01:05:09.026Z,3.20
2018-11-26T01:10:03.761Z,3.20
2018-11-26T01:14:58.425Z,3.30
2018-11-26T01:19:53.065Z,3.30
2018-11-26T01:24:47.684Z,3.20
2018-11-26T01:29:42.349Z,3.30
2018-11-26T01:34:36.998Z,3.20
2018-11-26T01:39:31.655Z,3.10
2018-11-26T01:44:26.336Z,3.20
2018-11-26T01:49:20.974Z,3.30
2018-11-26T01:54:15.613Z,3.30
2018-11-26T01:59:10.243Z,3.40
2018-11-26T02:04:04.892Z,3.40
2018-11-26T02:08:59.555Z,3.40
2018-11-26T02:13:54.283Z,3.40
2018-11-26T02:18:48.932Z,3.30
2018-11-26T02:23:43.620Z,3.40
2018-11-26T02:28:40.677Z,3.20
2018-11-26T02:33:37.892Z,3.20
2018-11-26T02:38:33.834Z,3.30
2018-11-26T02:43:28.729Z,3.30
2018-11-26T02:48:24.615Z,3.30
2018-11-26T02:53:19.423Z,3.30
2018-11-26T02:58:14.292Z,3.40
2018-11-26T03:03:09.317Z,3.40
2018-11-26T03:08:04.203Z,3.40
2018-11-26T03:12:59.042Z,3.40
2018-11-26T03:17:54.988Z,3.50
2018-11-26T03:22:49.794Z,3.50
2018-11-26T03:27:44.690Z,3.40
2018-11-26T03:32:39.453Z,3.40
2018-11-26T03:37:35.366Z,3.50
2018-11-26T03:42:30.156Z,3.40
2018-11-26T03:47:24.947Z,3.40
2018-11-26T03:52:19.743Z,3.40
2018-11-26T03:57:14.674Z,3.40
2018-11-26T04:02:09.586Z,3.40
2018-11-26T04:07:04.435Z,3.40
2018-11-26T04:11:59.310Z,3.40
2018-11-26T04:16:54.228Z,3.30
2018-11-26T04:21:49.264Z,3.30
2018-11-26T04:26:44.107Z,3.40
2018-11-26T04:31:38.949Z,3.30
2018-11-26T04:36:33.819Z,3.30
2018-11-26T04:41:28.668Z,3.20
2018-11-26T04:46:23.965Z,3.20
2018-11-26T04:51:18.969Z,3.10
2018-11-26T04:56:13.814Z,3.20
2018-11-26T05:01:15.237Z,3.20
2018-11-26T05:06:10.070Z,3.30
2018-11-26T05:11:04.851Z,3.30
2018-11-26T05:15:59.636Z,3.20
2018-11-26T05:20:54.497Z,3.20
2018-11-26T05:25:49.359Z,3.20
2018-11-26T05:30:44.190Z,3.20
2018-11-26T05:35:38.972Z,3.20
2018-11-26T05:40:33.845Z,3.20
2018-11-26T05:45:28.571Z,3.30
2018-11-26T05:50:23.487Z,3.30
2018-11-26T05:55:18.518Z,3.30
2018-11-26T06:00:34.273Z,3.30
2018-11-26T06:05:29.070Z,3.30
2018-11-26T06:10:23.933Z,3.40
2018-11-26T06:15:19.735Z,3.40
2018-11-26T06:20:15.007Z,3.30
2018-11-26T06:25:12.664Z,3.30
2018-11-26T06:30:18.660Z,3.30
2018-11-26T06:35:18.644Z,3.40
2018-11-26T06:40:14.460Z,3.40
2018-11-26T06:45:14.974Z,3.40
2018-11-26T06:50:12.164Z,3.30
2018-11-26T06:55:09.540Z,3.30
2018-11-26T07:00:05.316Z,3.40
2018-11-26T07:05:00.248Z,3.40
2018-11-26T07:09:55.008Z,3.40
2018-11-26T07:14:49.916Z,3.40
2018-11-26T07:19:44.940Z,3.40
2018-11-26T07:24:39.860Z,3.50
2018-11-26T07:29:34.707Z,3.50
2018-11-26T07:34:29.707Z,3.50
2018-11-26T07:39:25.046Z,3.50
2018-11-26T07:44:20.013Z,3.30
2018-11-26T07:49:14.934Z,3.20
2018-11-26T07:54:09.847Z,3.20
2018-11-26T07:59:04.884Z,3.30
2018-11-26T08:04:05.958Z,3.40
2018-11-26T08:09:01.120Z,3.60
2018-11-26T08:13:55.974Z,3.60
2018-11-26T08:18:52.197Z,3.70
2018-11-26T08:23:47.335Z,3.60
2018-11-26T08:28:42.755Z,3.60
2018-11-26T08:33:37.811Z,3.60
2018-11-26T08:38:37.570Z,3.70
2018-11-26T08:43:34.695Z,3.70
2018-11-26T08:48:33.828Z,3.90
2018-11-26T08:53:28.863Z,4.00
2018-11-26T08:58:24.019Z,4.10
2018-11-26T09:03:21.076Z,4.20
2018-11-26T09:08:16.481Z,4.40
2018-11-26T09:13:11.431Z,4.50
2018-11-26T09:18:06.237Z,4.70
2018-11-26T09:23:01.085Z,4.70
2018-11-26T09:27:55.998Z,4.80
2018-11-26T09:32:50.952Z,4.80
2018-11-26T09:37:45.911Z,4.90
2018-11-26T09:42:40.795Z,5.00
2018-11-26T09:47:38.429Z,5.00
2018-11-26T09:52:37.000Z,5.20
2018-11-26T09:57:42.464Z,5.30
2018-11-26T10:02:37.777Z,5.40
2018-11-26T10:07:51.758Z,5.30
2018-11-26T10:18:59.816Z,5.60
2018-11-26T10:23:54.510Z,5.70
2018-11-26T10:28:50.174Z,5.70
2018-11-26T10:33:44.830Z,5.70
2018-11-26T10:38:39.452Z,5.60
2018-11-26T10:43:34.104Z,5.50
2018-11-26T10:48:28.708Z,5.40
2018-11-26T10:53:23.368Z,5.20
2018-11-26T10:58:18.321Z,5.10
2018-11-26T11:03:13.202Z,5.20
2018-11-26T11:08:08.703Z,5.10
2018-11-26T11:13:03.624Z,5.10
2018-11-26T11:17:58.652Z,5.00
2018-11-26T11:22:53.509Z,5.00
2018-11-26T11:27:48.791Z,5.00
2018-11-26T11:32:43.833Z,5.00
2018-11-26T11:37:39.014Z,4.90
2018-11-26T11:42:39.900Z,4.90
2018-11-26T11:47:41.767Z,4.80
2018-11-26T11:52:48.587Z,4.80
2018-11-26T11:57:58.939Z,4.80
2018-11-26T12:03:07.038Z,4.80
2018-11-26T12:08:04.087Z,4.90
2018-11-26T12:13:02.041Z,4.90
2018-11-26T12:18:00.480Z,4.90
2018-11-26T12:22:55.469Z,4.90
2018-11-26T12:27:50.377Z,4.80
2018-11-26T12:32:45.374Z,4.80
2018-11-26T12:37:43.047Z,4.80
2018-11-26T12:42:39.728Z,4.80
2018-11-26T12:47:39.067Z,4.80
2018-11-26T12:52:42.479Z,4.80
2018-11-26T13:03:42.156Z,4.90
2018-11-26T13:09:02.196Z,4.90
2018-11-26T13:14:00.399Z,5.00
2018-11-26T13:19:05.210Z,4.90
2018-11-26T13:24:00.203Z,4.90
2018-11-26T13:28:58.797Z,4.90
2018-11-26T13:33:54.152Z,5.00
2018-11-26T13:38:49.194Z,5.10
2018-11-26T13:43:46.173Z,5.10
2018-11-26T13:48:42.571Z,5.10
2018-11-26T13:53:37.777Z,5.10
2018-11-26T13:58:38.340Z,5.10
2018-11-26T14:03:33.271Z,5.10
2018-11-26T14:08:35.125Z,5.00
2018-11-26T14:13:40.675Z,5.10
2018-11-26T14:18:39.416Z,5.10
2018-11-26T14:23:39.390Z,5.10
2018-11-26T14:28:35.857Z,5.00
2018-11-26T14:33:34.002Z,5.00
2018-11-26T14:38:28.973Z,5.00
2018-11-26T14:43:28.364Z,5.00
2018-11-26T14:48:23.399Z,4.90
2018-11-26T14:53:28.289Z,4.80
2018-11-26T14:58:25.922Z,4.80
2018-11-26T15:03:31.962Z,4.70
2018-11-26T15:13:40.012Z,4.70
2018-11-26T15:18:43.124Z,4.70
2018-11-26T15:23:43.280Z,4.70
2018-11-26T15:28:52.084Z,4.70
2018-11-26T15:34:09.655Z,4.70
2018-11-26T15:39:14.265Z,4.70
2018-11-26T15:44:13.974Z,4.70
2018-11-26T15:49:08.834Z,4.60
2018-11-26T15:54:03.653Z,4.60
2018-11-26T15:59:05.090Z,4.60
2018-11-26T16:04:08.051Z,4.60
2018-11-26T16:09:27.658Z,4.50
2018-11-26T16:14:46.331Z,4.50
2018-11-26T16:19:42.995Z,4.60
2018-11-26T16:24:40.042Z,4.60
2018-11-26T16:29:40.701Z,4.60
2018-11-26T16:34:45.536Z,4.50
2018-11-26T16:39:46.854Z,4.60
2018-11-26T16:44:50.556Z,4.60
2018-11-26T16:49:46.800Z,4.60
2018-11-26T16:54:43.816Z,4.60
2018-11-26T16:59:39.457Z,4.60
2018-11-26T17:04:34.956Z,4.60
2018-11-26T17:09:29.984Z,4.60
2018-11-26T17:14:25.694Z,4.50
2018-11-26T17:19:20.806Z,4.50
2018-11-26T17:24:17.417Z,4.50
2018-11-26T17:29:12.417Z,4.50
2018-11-26T17:34:08.026Z,4.50
2018-11-26T17:39:03.918Z,4.40
2018-11-26T17:43:58.980Z,4.50
2018-11-26T17:48:54.131Z,4.50
2018-11-26T17:53:48.973Z,4.50
2018-11-26T17:58:44.560Z,4.50
2018-11-26T18:03:39.757Z,4.50
2018-11-26T18:08:34.821Z,4.50
2018-11-26T18:13:29.944Z,4.50
2018-11-26T18:18:24.988Z,4.50
2018-11-26T18:23:20.298Z,4.50
2018-11-26T18:28:17.313Z,4.50
2018-11-26T18:33:12.681Z,4.50
2018-11-26T18:38:08.659Z,4.50
2018-11-26T18:43:03.772Z,4.50
2018-11-26T18:47:58.682Z,4.50
2018-11-26T18:52:53.899Z,4.50
2018-11-26T18:58:24.946Z,4.50
2018-11-26T19:03:22.608Z,4.50
2018-11-26T19:09:15.975Z,4.50
2018-11-26T19:59:20.314Z,4.30
2018-11-26T20:09:41.670Z,4.30
2018-11-26T20:14:42.243Z,4.30
2018-11-26T20:19:39.191Z,4.20
2018-11-26T20:24:34.105Z,4.20
2018-11-26T20:29:30.640Z,4.20
2018-11-26T20:34:27.936Z,4.20
2018-11-26T20:39:25.342Z,4.10
2018-11-26T20:44:20.756Z,4.10
2018-11-26T20:49:16.881Z,4.10
2018-11-26T20:54:13.421Z,4.00
2018-11-26T20:59:08.622Z,4.00
2018-11-26T21:04:10.645Z,3.90
2018-11-26T21:09:06.555Z,3.90
2018-11-26T21:14:01.284Z,3.90
2018-11-26T21:18:55.984Z,3.90
2018-11-26T21:23:50.653Z,3.90
2018-11-26T21:28:45.342Z,3.90
2018-11-26T21:33:40.026Z,3.90
2018-11-26T21:38:37.256Z,3.90
2018-11-26T21:43:31.947Z,3.90
2018-11-26T21:48:26.657Z,3.90
2018-11-26T21:53:21.441Z,3.90
2018-11-26T21:58:16.251Z,3.90
2018-11-26T22:03:14.073Z,3.90
2018-11-26T22:08:09.992Z,3.90
2018-11-26T22:13:04.772Z,3.90
2018-11-26T22:17:59.547Z,3.80
2018-11-26T22:22:54.550Z,3.80
2018-11-26T22:27:49.368Z,3.80
2018-11-26T22:32:44.198Z,3.80
2018-11-26T22:37:38.918Z,3.70
2018-11-26T22:42:34.471Z,3.70
2018-11-26T22:47:29.172Z,3.70
2018-11-26T22:52:23.864Z,3.60
2018-11-26T22:57:21.075Z,3.70
2018-11-26T23:02:15.792Z,3.60
2018-11-26T23:07:10.461Z,3.60
2018-11-26T23:12:05.217Z,3.50
2018-11-26T23:16:59.912Z,3.50
2018-11-26T23:27:16.300Z,3.50
2018-11-26T23:32:10.921Z,3.50
2018-11-26T23:37:05.733Z,3.40
2018-11-26T23:42:00.349Z,3.40
2018-11-26T23:47:13.005Z,3.40
2018-11-26T23:52:07.729Z,3.50
2018-11-26T23:57:02.432Z,3.50
